createdAt,value
2022-10-26T00:01:38.426Z,17.77
2022-10-26T00:03:41.902Z,17.75
2022-10-26T00:05:43.969Z,17.71
2022-10-26T00:07:45.601Z,17.82
2022-10-26T00:09:47.500Z,17.76
2022-10-26T00:11:49.121Z,17.76
2022-10-26T00:13:51.145Z,17.78
2022-10-26T00:15:53.103Z,17.79
2022-10-26T00:17:55.215Z,17.86
2022-10-26T00:19:57.932Z,17.80
2022-10-26T00:21:59.770Z,17.81
2022-10-26T00:24:01.610Z,17.64
2022-10-26T00:26:04.219Z,17.78
2022-10-26T00:28:05.874Z,17.85
2022-10-26T00:30:08.243Z,17.85
2022-10-26T00:32:10.139Z,17.84
2022-10-26T00:34:12.337Z,17.86
2022-10-26T00:36:16.930Z,17.88
2022-10-26T00:38:18.663Z,17.86
2022-10-26T00:40:20.479Z,17.85
2022-10-26T00:42:24.575Z,17.91
2022-10-26T00:44:48.071Z,17.86
2022-10-26T00:46:49.774Z,17.77
2022-10-26T00:48:56.378Z,17.91
2022-10-26T00:51:02.525Z,17.82
2022-10-26T00:53:06.946Z,17.90
2022-10-26T00:55:09.229Z,17.83
2022-10-26T00:57:13.338Z,17.93
2022-10-26T00:59:16.515Z,17.95
2022-10-26T01:01:18.430Z,17.92
2022-10-26T01:03:21.059Z,17.88
2022-10-26T01:05:24.191Z,17.97
2022-10-26T01:07:27.595Z,17.97
2022-10-26T01:09:29.867Z,18.02
2022-10-26T01:11:31.878Z,17.92
2022-10-26T01:13:36.076Z,17.91
2022-10-26T01:16:10.629Z,17.80
2022-10-26T01:18:48.386Z,17.92
2022-10-26T01:21:20.604Z,17.94
2022-10-26T01:23:34.731Z,17.83
2022-10-26T01:25:39.584Z,17.86
2022-10-26T01:27:41.471Z,17.92
2022-10-26T01:30:10.404Z,17.95
2022-10-26T01:32:17.548Z,17.88
2022-10-26T01:34:28.132Z,17.94
2022-10-26T01:36:36.359Z,18.00
2022-10-26T01:39:06.308Z,17.90
2022-10-26T01:41:23.215Z,17.85
2022-10-26T01:43:28.227Z,17.93
2022-10-26T01:45:32.326Z,17.88
2022-10-26T01:47:36.651Z,17.89
2022-10-26T01:50:05.742Z,17.96
2022-10-26T01:52:09.900Z,17.91
2022-10-26T01:54:11.685Z,17.88
2022-10-26T01:56:25.922Z,17.90
2022-10-26T01:58:55.626Z,17.77
2022-10-26T02:01:26.046Z,17.83
2022-10-26T02:03:56.475Z,17.91
2022-10-26T02:06:17.311Z,17.83
2022-10-26T02:08:39.665Z,17.85
2022-10-26T02:11:05.578Z,17.86
2022-10-26T02:13:33.452Z,17.87
2022-10-26T02:15:59.114Z,17.87
2022-10-26T02:18:06.352Z,17.87
2022-10-26T02:20:13.153Z,17.94
2022-10-26T02:22:24.655Z,17.93
2022-10-26T02:24:28.083Z,17.98
2022-10-26T02:26:32.221Z,17.95
2022-10-26T02:28:42.226Z,17.96
2022-10-26T02:30:46.672Z,17.97
2022-10-26T02:32:53.047Z,17.99
2022-10-26T02:34:59.856Z,17.88
2022-10-26T02:37:04.468Z,17.94
2022-10-26T02:39:08.263Z,17.91
2022-10-26T02:41:12.590Z,17.94
2022-10-26T02:43:21.979Z,17.98
2022-10-26T02:45:31.770Z,17.89
2022-10-26T02:47:34.133Z,17.91
2022-10-26T02:49:36.115Z,17.95
2022-10-26T02:51:45.819Z,17.98
2022-10-26T02:53:57.801Z,17.97
2022-10-26T02:56:04.890Z,17.87
2022-10-26T02:58:16.893Z,17.82
2022-10-26T03:00:19.568Z,17.85
2022-10-26T03:02:22.956Z,17.89
2022-10-26T03:04:32.202Z,17.89
2022-10-26T03:06:34.006Z,17.75
2022-10-26T03:08:35.704Z,17.83
2022-10-26T03:10:42.582Z,17.83
2022-10-26T03:12:44.966Z,17.82
2022-10-26T03:14:46.672Z,17.80
2022-10-26T03:16:48.400Z,17.81
2022-10-26T03:18:50.086Z,17.78
2022-10-26T03:20:51.694Z,17.71
2022-10-26T03:22:53.368Z,17.76
2022-10-26T03:24:55.054Z,17.81
2022-10-26T03:26:59.602Z,17.84
2022-10-26T03:29:04.253Z,17.81
2022-10-26T03:31:06.168Z,17.87
2022-10-26T03:33:08.130Z,17.85
2022-10-26T03:35:09.774Z,17.79
2022-10-26T03:37:11.446Z,17.81
2022-10-26T03:39:13.143Z,17.80
2022-10-26T03:41:14.788Z,17.78
2022-10-26T03:43:16.439Z,17.83
2022-10-26T03:45:18.365Z,17.76
2022-10-26T03:47:19.974Z,17.79
2022-10-26T03:49:21.644Z,17.79
2022-10-26T03:51:31.946Z,17.65
2022-10-26T03:53:33.639Z,17.73
2022-10-26T03:55:35.691Z,17.70
2022-10-26T03:57:41.962Z,17.74
2022-10-26T03:59:43.609Z,17.75
2022-10-26T04:01:45.346Z,17.73
2022-10-26T04:03:47.155Z,17.70
2022-10-26T04:05:48.795Z,17.71
2022-10-26T04:08:04.642Z,17.74
2022-10-26T04:10:06.917Z,17.75
2022-10-26T04:12:08.756Z,17.75
2022-10-26T04:14:10.426Z,17.75
2022-10-26T04:16:12.125Z,17.75
2022-10-26T04:18:14.059Z,17.71
2022-10-26T04:20:15.818Z,17.77
2022-10-26T04:22:17.533Z,17.72
2022-10-26T04:24:19.296Z,17.79
2022-10-26T04:26:21.092Z,17.76
2022-10-26T04:28:22.756Z,17.79
2022-10-26T04:30:24.435Z,17.75
2022-10-26T04:32:26.093Z,17.88
2022-10-26T04:34:27.723Z,17.91
2022-10-26T04:36:30.597Z,17.92
2022-10-26T04:38:32.272Z,17.94
2022-10-26T04:40:34.950Z,17.95
2022-10-26T04:42:47.884Z,17.95
2022-10-26T04:44:50.081Z,18.02
2022-10-26T04:46:51.717Z,18.00
2022-10-26T04:48:53.443Z,18.01
2022-10-26T04:50:58.347Z,17.97
2022-10-26T04:53:00.463Z,18.08
2022-10-26T04:55:05.950Z,18.05
2022-10-26T04:57:07.640Z,18.05
2022-10-26T04:59:09.228Z,18.08
2022-10-26T05:01:11.121Z,18.15
2022-10-26T05:03:12.930Z,18.12
2022-10-26T05:05:15.248Z,18.10
2022-10-26T05:07:17.091Z,18.16
2022-10-26T05:09:18.720Z,18.15
2022-10-26T05:11:20.337Z,18.17
2022-10-26T05:13:22.446Z,18.20
2022-10-26T05:15:24.403Z,18.26
2022-10-26T05:17:26.564Z,18.24
2022-10-26T05:19:28.223Z,18.18
2022-10-26T05:21:33.683Z,18.21
2022-10-26T05:23:35.533Z,18.15
2022-10-26T05:25:38.405Z,18.11
2022-10-26T05:27:40.014Z,18.11
2022-10-26T05:29:41.638Z,18.12
2022-10-26T05:31:43.278Z,18.04
2022-10-26T05:33:45.037Z,18.02
2022-10-26T05:35:47.019Z,18.08
2022-10-26T05:37:48.662Z,18.14
2022-10-26T05:39:50.323Z,18.14
2022-10-26T05:41:52.009Z,18.11
2022-10-26T05:43:53.707Z,18.07
2022-10-26T05:45:55.324Z,18.02
2022-10-26T05:47:59.949Z,17.92
2022-10-26T05:50:04.552Z,17.88
2022-10-26T05:52:06.165Z,17.81
2022-10-26T05:54:11.549Z,17.84
2022-10-26T05:56:20.888Z,17.81
2022-10-26T05:58:22.841Z,17.84
2022-10-26T06:00:27.694Z,17.75
2022-10-26T06:03:05.145Z,17.79
2022-10-26T06:05:11.221Z,17.74
2022-10-26T06:07:15.662Z,17.76
2022-10-26T06:09:17.733Z,17.79
2022-10-26T06:11:19.751Z,17.69
2022-10-26T06:13:24.770Z,17.80
2022-10-26T06:15:26.625Z,17.82
2022-10-26T06:18:04.521Z,17.82
2022-10-26T06:20:32.033Z,17.82
2022-10-26T06:22:41.008Z,17.76
2022-10-26T06:25:04.156Z,17.86
2022-10-26T06:27:43.108Z,17.80
2022-10-26T06:30:17.096Z,17.87
2022-10-26T06:32:18.776Z,17.88
2022-10-26T06:34:27.876Z,17.88
2022-10-26T06:36:30.936Z,17.92
2022-10-26T06:38:35.462Z,17.87
2022-10-26T06:40:40.740Z,17.89
2022-10-26T06:42:42.997Z,17.81
2022-10-26T06:44:44.882Z,17.90
2022-10-26T06:47:07.201Z,17.89
2022-10-26T06:49:26.782Z,17.81
2022-10-26T06:51:44.638Z,17.88
2022-10-26T06:53:56.250Z,17.91
2022-10-26T06:56:00.878Z,17.76
2022-10-26T06:58:03.464Z,17.79
2022-10-26T07:00:22.404Z,17.76
2022-10-26T07:02:24.613Z,17.81
2022-10-26T07:04:26.598Z,17.86
2022-10-26T07:06:28.263Z,17.79
2022-10-26T07:08:32.182Z,17.73
2022-10-26T07:10:35.368Z,17.78
2022-10-26T07:12:37.423Z,17.83
2022-10-26T07:14:39.192Z,17.80
2022-10-26T07:16:40.901Z,17.72
2022-10-26T07:18:42.552Z,17.60
2022-10-26T07:20:44.173Z,17.74
2022-10-26T07:22:51.207Z,17.62
2022-10-26T07:24:53.369Z,17.73
2022-10-26T07:26:56.129Z,17.72
2022-10-26T07:28:58.007Z,17.70
2022-10-26T07:30:59.655Z,17.69
2022-10-26T07:33:02.277Z,17.76
2022-10-26T07:35:04.149Z,17.65
2022-10-26T07:37:05.829Z,17.75
2022-10-26T07:39:07.941Z,17.72
2022-10-26T07:41:09.838Z,17.75
2022-10-26T07:43:11.529Z,17.81
2022-10-26T07:45:13.351Z,17.86
2022-10-26T07:47:15.433Z,17.93
2022-10-26T07:49:19.414Z,17.94
2022-10-26T07:51:21.454Z,17.91
2022-10-26T07:53:27.661Z,17.83
2022-10-26T07:55:29.729Z,17.84
2022-10-26T07:57:31.700Z,17.88
2022-10-26T07:59:33.520Z,17.81
2022-10-26T08:01:38.624Z,17.82
2022-10-26T08:03:41.355Z,17.85
2022-10-26T08:05:43.048Z,17.85
2022-10-26T08:07:45.995Z,17.92
2022-10-26T08:09:47.738Z,17.92
2022-10-26T08:11:49.419Z,17.85
2022-10-26T08:13:55.324Z,17.85
2022-10-26T08:16:01.615Z,17.96
2022-10-26T08:18:03.644Z,18.00
2022-10-26T08:20:05.801Z,18.01
2022-10-26T08:22:07.505Z,18.06
2022-10-26T08:24:09.330Z,18.17
2022-10-26T08:26:14.426Z,18.05
2022-10-26T08:28:16.267Z,18.11
2022-10-26T08:30:18.046Z,18.13
2022-10-26T08:32:19.707Z,18.14
2022-10-26T08:34:21.324Z,18.29
2022-10-26T08:36:27.999Z,18.17
2022-10-26T08:38:30.232Z,18.35
2022-10-26T08:40:38.107Z,18.20
2022-10-26T08:42:44.526Z,18.21
2022-10-26T08:44:52.960Z,18.28
2022-10-26T08:47:36.174Z,18.35
2022-10-26T08:49:50.222Z,18.31
2022-10-26T08:51:56.675Z,18.37
2022-10-26T08:54:10.272Z,18.35
2022-10-26T08:56:25.082Z,18.45
2022-10-26T08:58:36.290Z,18.54
2022-10-26T09:00:39.127Z,18.49
2022-10-26T09:02:47.983Z,18.46
2022-10-26T09:04:49.827Z,18.53
2022-10-26T09:07:03.054Z,18.50
2022-10-26T09:09:15.771Z,18.56
2022-10-26T09:11:29.205Z,18.64
2022-10-26T09:13:59.835Z,18.52
2022-10-26T09:16:04.589Z,18.62
2022-10-26T09:18:31.927Z,18.68
2022-10-26T09:20:39.866Z,18.65
2022-10-26T09:22:57.516Z,18.63
2022-10-26T09:25:12.763Z,18.55
2022-10-26T09:27:28.806Z,18.65
2022-10-26T09:29:38.672Z,18.57
2022-10-26T09:31:43.768Z,18.68
2022-10-26T09:33:45.416Z,18.72
2022-10-26T09:35:57.596Z,18.73
2022-10-26T09:38:18.206Z,18.79
2022-10-26T09:40:43.401Z,18.82
2022-10-26T09:43:00.271Z,18.81
2022-10-26T09:45:11.806Z,18.85
2022-10-26T09:47:24.689Z,18.81
2022-10-26T09:49:48.857Z,18.94
2022-10-26T09:51:51.348Z,18.96
2022-10-26T09:53:56.232Z,18.91
2022-10-26T09:56:07.473Z,18.78
2022-10-26T09:58:20.382Z,18.78
2022-10-26T10:00:24.859Z,18.74
2022-10-26T10:02:35.924Z,18.86
2022-10-26T10:04:47.039Z,18.85
2022-10-26T10:07:08.891Z,18.79
2022-10-26T10:09:16.002Z,18.89
2022-10-26T10:11:19.574Z,18.91
2022-10-26T10:13:23.372Z,19.00
2022-10-26T10:15:26.330Z,19.04
2022-10-26T10:17:28.256Z,18.98
2022-10-26T10:19:32.510Z,19.11
2022-10-26T10:21:41.016Z,18.98
2022-10-26T10:23:52.321Z,19.17
2022-10-26T10:26:20.382Z,19.07
2022-10-26T10:28:25.093Z,19.13
2022-10-26T10:30:33.107Z,18.97
2022-10-26T10:32:38.664Z,18.97
2022-10-26T10:34:43.293Z,19.06
2022-10-26T10:36:45.111Z,18.99
2022-10-26T10:39:03.345Z,18.89
2022-10-26T10:41:06.325Z,19.02
2022-10-26T10:43:15.603Z,19.14
2022-10-26T10:45:29.762Z,19.21
2022-10-26T10:47:36.802Z,19.21
2022-10-26T10:49:38.911Z,19.17
2022-10-26T10:51:48.618Z,19.24
2022-10-26T10:53:57.389Z,19.36
2022-10-26T10:56:12.042Z,19.34
2022-10-26T10:58:18.929Z,19.42
2022-10-26T11:00:25.254Z,19.38
2022-10-26T11:03:00.861Z,19.48
2022-10-26T11:05:27.155Z,19.66
2022-10-26T11:07:32.083Z,19.74
2022-10-26T11:09:38.113Z,19.93
2022-10-26T11:12:12.170Z,19.73
2022-10-26T11:14:38.320Z,19.81
2022-10-26T11:16:47.332Z,19.80
2022-10-26T11:19:16.746Z,19.58
2022-10-26T11:21:34.350Z,19.78
2022-10-26T11:23:43.889Z,19.79
2022-10-26T11:25:54.192Z,20.03
2022-10-26T11:28:11.939Z,19.93
2022-10-26T11:30:27.688Z,20.09
2022-10-26T11:32:36.819Z,20.04
2022-10-26T11:34:57.111Z,20.11
2022-10-26T11:37:29.928Z,20.27
2022-10-26T11:39:47.376Z,20.31
2022-10-26T11:42:00.954Z,20.39
2022-10-26T11:44:30.936Z,20.44
2022-10-26T11:46:38.047Z,20.44
2022-10-26T11:49:19.590Z,20.25
2022-10-26T11:52:08.423Z,20.46
2022-10-26T11:54:34.922Z,20.53
2022-10-26T11:56:49.070Z,20.36
2022-10-26T11:58:51.302Z,20.51
2022-10-26T12:00:57.794Z,20.53
2022-10-26T12:03:06.964Z,20.69
2022-10-26T12:05:33.738Z,20.41
2022-10-26T12:07:42.033Z,20.57
2022-10-26T12:09:45.464Z,20.68
2022-10-26T12:11:52.445Z,20.57
2022-10-26T12:13:59.720Z,20.57
2022-10-26T12:16:05.619Z,20.78
2022-10-26T12:18:43.091Z,20.86
2022-10-26T12:21:07.927Z,20.86
2022-10-26T12:23:16.173Z,20.79
2022-10-26T12:25:25.123Z,20.74
2022-10-26T12:27:41.020Z,20.87
2022-10-26T12:29:47.912Z,20.96
2022-10-26T12:31:50.960Z,20.89
2022-10-26T12:33:52.759Z,20.64
2022-10-26T12:35:54.919Z,20.84
2022-10-26T12:37:57.223Z,20.77
2022-10-26T12:40:32.941Z,20.62
2022-10-26T12:42:41.610Z,20.62
2022-10-26T12:44:43.644Z,20.64
2022-10-26T12:46:45.591Z,20.64
2022-10-26T12:48:50.857Z,20.64
2022-10-26T12:50:52.761Z,20.75
2022-10-26T12:52:55.922Z,20.85
2022-10-26T12:55:12.954Z,20.70
2022-10-26T12:57:28.651Z,20.69
2022-10-26T12:59:52.699Z,20.72
2022-10-26T13:02:31.853Z,20.60
2022-10-26T13:04:58.156Z,20.70
2022-10-26T13:07:22.656Z,20.69
2022-10-26T13:09:29.430Z,20.73
2022-10-26T13:11:47.951Z,20.56
2022-10-26T13:14:02.496Z,20.60
2022-10-26T13:16:04.445Z,20.70
2022-10-26T13:18:16.929Z,20.65
2022-10-26T13:20:19.196Z,20.68
2022-10-26T13:22:22.255Z,20.61
2022-10-26T13:24:26.069Z,20.82
2022-10-26T13:26:31.180Z,20.88
2022-10-26T13:28:38.793Z,20.92
2022-10-26T13:30:48.064Z,21.04
2022-10-26T13:32:55.928Z,21.20
2022-10-26T13:35:00.514Z,21.00
2022-10-26T13:37:35.005Z,21.25
2022-10-26T13:39:40.703Z,21.28
2022-10-26T13:41:46.317Z,21.47
2022-10-26T13:43:49.036Z,21.31
2022-10-26T13:45:56.571Z,21.25
2022-10-26T13:48:11.798Z,21.30
2022-10-26T13:50:26.458Z,21.42
2022-10-26T13:52:36.627Z,21.07
2022-10-26T13:54:46.423Z,21.05
2022-10-26T13:57:05.969Z,21.15
2022-10-26T13:59:32.481Z,21.11
2022-10-26T14:01:52.003Z,21.19
2022-10-26T14:04:38.380Z,21.31
2022-10-26T14:07:11.255Z,21.36
2022-10-26T14:09:40.833Z,21.29
2022-10-26T14:12:10.228Z,21.28
2022-10-26T14:14:18.802Z,21.32
2022-10-26T14:16:36.220Z,21.39
2022-10-26T14:18:48.734Z,21.33
2022-10-26T14:20:57.998Z,21.53
2022-10-26T14:23:03.037Z,21.31
2022-10-26T14:25:41.647Z,21.34
2022-10-26T14:28:01.878Z,21.27
2022-10-26T14:30:27.063Z,21.06
2022-10-26T14:32:35.850Z,21.15
2022-10-26T14:34:39.287Z,21.25
2022-10-26T14:36:53.054Z,21.23
2022-10-26T14:39:02.005Z,21.25
2022-10-26T14:41:06.021Z,21.33
2022-10-26T14:43:23.957Z,21.44
2022-10-26T14:45:50.244Z,21.64
2022-10-26T14:47:52.377Z,21.60
2022-10-26T14:49:55.886Z,21.47
2022-10-26T14:51:59.949Z,21.33
2022-10-26T14:54:03.343Z,21.38
2022-10-26T14:56:26.180Z,21.37
2022-10-26T14:58:30.991Z,21.37
2022-10-26T15:00:35.211Z,21.21
2022-10-26T15:02:44.068Z,21.13
2022-10-26T15:05:07.970Z,21.11
2022-10-26T15:07:24.521Z,21.00
2022-10-26T15:09:38.632Z,20.97
2022-10-26T15:11:45.336Z,20.80
2022-10-26T15:13:47.809Z,20.68
2022-10-26T15:15:58.332Z,20.71
2022-10-26T15:18:07.067Z,20.59
2022-10-26T15:20:18.514Z,20.51
2022-10-26T15:22:32.383Z,20.45
2022-10-26T15:24:39.998Z,20.44
2022-10-26T15:26:45.592Z,20.41
2022-10-26T15:28:53.129Z,20.23
2022-10-26T15:31:25.072Z,20.13
2022-10-26T15:33:27.883Z,19.97
2022-10-26T15:35:32.406Z,20.05
2022-10-26T15:37:36.177Z,20.01
2022-10-26T15:39:39.363Z,20.05
2022-10-26T15:41:48.428Z,20.15
2022-10-26T15:44:01.470Z,20.03
2022-10-26T15:46:07.735Z,20.02
2022-10-26T15:48:32.147Z,20.02
2022-10-26T15:50:42.913Z,19.92
2022-10-26T15:52:49.397Z,19.85
2022-10-26T15:57:27.423Z,19.88
2022-10-26T15:59:33.085Z,19.78
2022-10-26T16:01:45.323Z,19.72
2022-10-26T16:03:55.121Z,19.66
2022-10-26T16:06:05.447Z,19.69
2022-10-26T16:08:17.782Z,19.52
2022-10-26T16:10:25.767Z,19.52
2022-10-26T16:12:31.519Z,19.54
2022-10-26T16:15:03.945Z,19.52
2022-10-26T16:17:09.941Z,19.59
2022-10-26T16:19:31.435Z,19.54
2022-10-26T16:21:39.513Z,19.47
2022-10-26T16:23:43.038Z,19.40
2022-10-26T16:25:55.743Z,19.47
2022-10-26T16:28:09.819Z,19.25
2022-10-26T16:30:13.766Z,19.34
2022-10-26T16:32:18.602Z,19.30
2022-10-26T16:34:20.258Z,19.30
2022-10-26T16:36:22.116Z,19.26
2022-10-26T16:38:25.855Z,19.25
2022-10-26T16:40:28.225Z,19.23
2022-10-26T16:42:34.479Z,19.13
2022-10-26T16:44:40.984Z,19.10
2022-10-26T16:46:44.740Z,19.20
2022-10-26T16:48:50.968Z,19.25
2022-10-26T16:50:54.948Z,19.21
2022-10-26T16:52:59.352Z,19.15
2022-10-26T16:55:01.842Z,19.05
2022-10-26T16:57:07.405Z,19.13
2022-10-26T16:59:11.717Z,18.95
2022-10-26T17:01:18.798Z,18.97
2022-10-26T17:03:20.684Z,18.98
2022-10-26T17:05:25.629Z,19.00
2022-10-26T17:07:28.624Z,18.99
2022-10-26T17:09:33.511Z,19.00
2022-10-26T17:11:38.716Z,18.97
2022-10-26T17:13:42.458Z,19.02
2022-10-26T17:15:44.581Z,18.93
2022-10-26T17:17:48.247Z,18.99
2022-10-26T17:19:51.542Z,19.03
2022-10-26T17:21:55.198Z,18.97
2022-10-26T17:23:59.593Z,18.83
2022-10-26T17:26:07.855Z,18.90
2022-10-26T17:28:10.369Z,18.91
2022-10-26T17:30:16.224Z,18.97
2022-10-26T17:32:27.940Z,18.94
2022-10-26T17:34:35.874Z,18.82
2022-10-26T17:36:41.548Z,18.83
2022-10-26T17:38:44.553Z,18.78
2022-10-26T17:41:02.813Z,18.83
2022-10-26T17:43:30.552Z,18.89
2022-10-26T17:45:32.905Z,18.90
2022-10-26T17:48:01.527Z,18.99
2022-10-26T17:50:05.592Z,18.93
2022-10-26T17:52:24.574Z,18.88
2022-10-26T17:54:42.350Z,18.70
2022-10-26T17:56:55.786Z,18.75
2022-10-26T17:59:12.535Z,18.82
2022-10-26T18:01:15.736Z,18.61
2022-10-26T18:03:22.739Z,18.61
2022-10-26T18:05:24.818Z,18.62
2022-10-26T18:07:26.746Z,18.54
2022-10-26T18:09:41.487Z,18.60
2022-10-26T18:11:55.043Z,18.52
2022-10-26T18:14:09.888Z,18.44
2022-10-26T18:16:28.424Z,18.45
2022-10-26T18:18:31.259Z,18.44
2022-10-26T18:20:33.891Z,18.40
2022-10-26T18:22:36.900Z,18.33
2022-10-26T18:24:41.934Z,18.33
2022-10-26T18:26:44.388Z,18.28
2022-10-26T18:28:47.246Z,18.40
2022-10-26T18:30:50.781Z,18.28
2022-10-26T18:32:53.892Z,18.34
2022-10-26T18:34:57.223Z,18.27
2022-10-26T18:37:00.367Z,18.28
2022-10-26T18:39:02.930Z,18.26
2022-10-26T18:41:04.756Z,18.32
2022-10-26T18:43:06.530Z,18.18
2022-10-26T18:45:08.430Z,18.27
2022-10-26T18:47:10.105Z,18.26
2022-10-26T18:49:11.927Z,18.27
2022-10-26T18:51:16.426Z,18.34
2022-10-26T18:55:21.016Z,18.17
2022-10-26T18:57:29.546Z,18.30
2022-10-26T18:59:31.275Z,18.22
2022-10-26T19:01:36.044Z,18.25
2022-10-26T19:03:39.273Z,18.24
2022-10-26T19:05:41.502Z,18.16
2022-10-26T19:07:43.200Z,18.20
2022-10-26T19:09:44.861Z,18.10
2022-10-26T19:11:46.596Z,18.06
2022-10-26T19:13:50.278Z,18.09
2022-10-26T19:16:03.216Z,18.09
2022-10-26T19:18:05.484Z,18.00
2022-10-26T19:20:07.536Z,18.04
2022-10-26T19:22:09.421Z,18.04
2022-10-26T19:24:13.570Z,18.00
2022-10-26T19:26:18.435Z,18.03
2022-10-26T19:28:20.164Z,17.97
2022-10-26T19:30:22.189Z,18.11
2022-10-26T19:32:27.930Z,18.08
2022-10-26T19:34:29.614Z,18.05
2022-10-26T19:36:33.661Z,18.01
2022-10-26T19:38:35.988Z,17.99
2022-10-26T19:40:37.862Z,18.00
2022-10-26T19:42:39.763Z,18.04
2022-10-26T19:44:41.421Z,18.05
2022-10-26T19:46:44.293Z,18.05
2022-10-26T19:48:53.775Z,18.08
2022-10-26T19:50:56.192Z,18.05
2022-10-26T19:52:57.949Z,18.03
2022-10-26T19:54:59.616Z,18.05
2022-10-26T19:57:01.296Z,18.09
2022-10-26T19:59:03.322Z,17.99
2022-10-26T20:01:21.572Z,18.06
2022-10-26T20:03:23.445Z,18.07
2022-10-26T20:05:25.083Z,18.10
2022-10-26T20:07:35.338Z,18.04
2022-10-26T20:09:37.010Z,18.06
2022-10-26T20:11:48.983Z,18.11
2022-10-26T20:13:56.393Z,18.07
2022-10-26T20:15:58.851Z,17.99
2022-10-26T20:18:01.414Z,17.98
2022-10-26T20:20:15.563Z,18.03
2022-10-26T20:22:42.819Z,18.01
2022-10-26T20:24:44.474Z,18.00
2022-10-26T20:26:46.164Z,17.98
2022-10-26T20:28:51.172Z,18.00
2022-10-26T20:30:52.946Z,18.01
2022-10-26T20:32:56.534Z,18.01
2022-10-26T20:34:58.287Z,18.02
2022-10-26T20:37:00.212Z,18.03
2022-10-26T20:39:02.123Z,17.97
2022-10-26T20:41:07.732Z,17.95
2022-10-26T20:43:18.378Z,17.96
2022-10-26T20:45:33.320Z,17.89
2022-10-26T20:47:36.189Z,18.01
2022-10-26T20:49:38.100Z,18.00
2022-10-26T20:52:18.979Z,17.91
2022-10-26T20:54:26.239Z,18.04
2022-10-26T20:56:28.706Z,18.04
2022-10-26T20:58:47.822Z,17.98
2022-10-26T21:01:13.292Z,17.89
2022-10-26T21:03:15.153Z,17.96
2022-10-26T21:05:45.326Z,17.94
2022-10-26T21:07:47.261Z,17.96
2022-10-26T21:09:48.949Z,17.92
2022-10-26T21:11:57.731Z,17.93
2022-10-26T21:14:00.867Z,17.92
2022-10-26T21:16:06.657Z,17.85
2022-10-26T21:18:08.676Z,17.83
2022-10-26T21:20:11.485Z,17.90
2022-10-26T21:22:13.561Z,17.88
2022-10-26T21:24:15.665Z,17.80
2022-10-26T21:26:18.132Z,17.76
2022-10-26T21:28:20.222Z,17.81
2022-10-26T21:30:22.144Z,17.84
2022-10-26T21:32:23.906Z,17.86
2022-10-26T21:34:25.624Z,17.87
2022-10-26T21:36:27.605Z,17.77
2022-10-26T21:38:31.287Z,17.79
2022-10-26T21:40:33.174Z,17.69
2022-10-26T21:42:35.022Z,17.64
2022-10-26T21:44:41.467Z,17.64
2022-10-26T21:46:43.625Z,17.53
2022-10-26T21:48:46.555Z,17.59
2022-10-26T21:50:49.174Z,17.61
2022-10-26T21:52:53.519Z,17.62
2022-10-26T21:54:56.030Z,17.64
2022-10-26T21:56:58.247Z,17.64
2022-10-26T21:59:02.099Z,17.65
2022-10-26T22:01:15.255Z,17.66
2022-10-26T22:03:17.276Z,17.70
2022-10-26T22:05:19.246Z,17.69
2022-10-26T22:07:21.433Z,17.64
2022-10-26T22:09:24.398Z,17.62
2022-10-26T22:11:41.355Z,17.56
2022-10-26T22:13:45.476Z,17.58
2022-10-26T22:15:47.209Z,17.59
2022-10-26T22:17:51.940Z,17.52
2022-10-26T22:19:53.797Z,17.56
2022-10-26T22:21:56.915Z,17.59
2022-10-26T22:23:58.905Z,17.59
2022-10-26T22:26:05.971Z,17.62
2022-10-26T22:28:08.023Z,17.64
2022-10-26T22:30:10.704Z,17.64
2022-10-26T22:32:12.585Z,17.60
2022-10-26T22:34:16.540Z,17.59
2022-10-26T22:36:18.325Z,17.51
2022-10-26T22:38:20.159Z,17.52
2022-10-26T22:40:21.844Z,17.50
2022-10-26T22:42:23.677Z,17.60
2022-10-26T22:44:25.439Z,17.55
2022-10-26T22:46:28.189Z,17.47
2022-10-26T22:48:30.450Z,17.49
2022-10-26T22:50:33.350Z,17.60
2022-10-26T22:52:35.694Z,17.48
2022-10-26T22:54:37.321Z,17.48
2022-10-26T22:56:39.409Z,17.48
2022-10-26T22:58:41.250Z,17.58
2022-10-26T23:00:43.007Z,17.58
2022-10-26T23:02:44.671Z,17.64
2022-10-26T23:06:48.994Z,17.66
2022-10-26T23:08:51.079Z,17.72
2022-10-26T23:10:53.020Z,17.72
2022-10-26T23:12:55.336Z,17.69
2022-10-26T23:14:57.095Z,17.73
2022-10-26T23:16:58.768Z,17.72
2022-10-26T23:19:00.718Z,17.64
2022-10-26T23:21:03.884Z,17.72
2022-10-26T23:23:05.495Z,17.76
2022-10-26T23:25:07.383Z,17.76
2022-10-26T23:27:09.118Z,17.76
2022-10-26T23:29:11.020Z,17.72
2022-10-26T23:31:27.806Z,17.71
2022-10-26T23:33:29.467Z,17.74
2022-10-26T23:35:31.357Z,17.73
2022-10-26T23:37:33.297Z,17.75
2022-10-26T23:39:35.106Z,17.71
2022-10-26T23:41:36.927Z,17.74
2022-10-26T23:43:38.837Z,17.76
2022-10-26T23:45:40.501Z,17.75
2022-10-26T23:47:42.135Z,17.76
2022-10-26T23:49:43.920Z,17.77
2022-10-26T23:51:45.552Z,17.80
2022-10-26T23:53:47.210Z,17.80
2022-10-26T23:55:49.373Z,17.77
2022-10-26T23:58:10.666Z,17.78
